SIF weather

Simara Airport
Simara, Narayani, Nepal

Public forecast

Using degrees Celsius for public forecast. Weather courtesy of forecast.io.

METAR (pilot weather report)

Closest report is Tribhuvan International Airport, 38.1 nm (70.5 km) NNE. Retrieved 2019/09/21 07:20 UTC (26 minutes ago):

VNKT 210720Z 31004KT 9999 FEW020 SCT030 28/18 Q1016 NOSIG

TAF (pilot weather forecast)

Closest forecast is Tribhuvan International Airport, 38.1 nm (70.5 km) NNE. Retrieved 2019/09/21 06:00 UTC (2 hours ago):

TAF VNKT 210500Z 2106/2206 20008KT 8000 FEW015 SCT030 BKN100 PROB30 2108/2114 4000 TSRA FEW025CB OVC090 BECMG 2114/2116 12004KT FEW010 SCT025 BKN100 PROB40 2118/2123 4000 TSRA FEW025CB BECMG 2200/2202 09003KT 4000 -RA/BR FEW008 SCT025 BKN100 BECMG 2204/2205 12004KT 6000 FEW010 SCT030 BKN100